Gillette, WY (82716)

8:10 PM MDT on August 28, 2016 (GMT -0600)
Gillette-Campbell County | | Change Station

Elev 4364 ft 44.34 °N, 105.54 °W | Updated 17 minutes ago

Clear
Clear
72 °F
Feels Like 72 °F
N
6
Wind Variable Wind from NNW

Today
High -- | Low -- °F
--% Chance of Precip.
Yesterday
High -- | Low -- °F
Precip. -- in
Pressure 29.98 in
Visibility 10.0 miles
Clouds Clear
Dew Point 32 °F
Humidity 23%
Rainfall 0.00 in
Snow Depth Not available.
6:21 AM 7:45 PM
Waning Crescent, 12% visible
METAR KGCC 290153Z AUTO 33005KT 10SM CLR 22/00 A3009 RMK AO2 SLP152 T02220000 $
Pressure 29.98 in
Visibility 10.0 miles
Clouds Clear
Dew Point 32 °F
Humidity 23%
Rainfall 0.00 in
Snow Depth Not available.
6:21 AM 7:45 PM
Waning Crescent, 12% visible
METAR KGCC 290153Z AUTO 33005KT 10SM CLR 22/00 A3009 RMK AO2 SLP152 T02220000 $

10-Day Weather Forecast

Almanac

Astronomy

Aug. 28, 2016 Rise Set
Actual Time
Civil Twilight
Nautical Twilight
Astronomical Twilight
Moon
Length of Visible Light
Length of Day
Tomorrow will be .
, % of the Moon is Illuminated

Today's Extremes

State Highs State Lows

Community

WunderPhotos

Upload Photos

1,935,768 photos uploaded!

WunderBlog® & News

Nearby

Air Quality

  Air Quality AQ Index Pollutant
Not available.

Snow Depth

Station Depth Elevation

Earthquake Activity

City Distance Mag. Time & Date
Minimum magnitude displayed is 2.5.

Coastal Water Temperatures

Place Temperature

Stations

Nearby Weather Stations

Station Location Temp. Windchill Dew Point Humidity Wind Precip. Elev Updated Type
                   

Watches & Warnings

There are currently no watches in effect.